createdAt,value
2022-10-17T00:01:02.814Z,16.40
2022-10-17T00:03:30.573Z,16.40
2022-10-17T00:05:58.491Z,16.50
2022-10-17T00:08:26.196Z,16.50
2022-10-17T00:11:00.515Z,16.60
2022-10-17T00:13:28.439Z,16.60
2022-10-17T00:15:56.170Z,16.60
2022-10-17T00:18:24.348Z,16.60
2022-10-17T00:20:52.236Z,16.50
2022-10-17T00:23:20.092Z,16.60
2022-10-17T00:25:47.718Z,16.60
2022-10-17T00:28:16.058Z,16.60
2022-10-17T00:30:43.649Z,16.50
2022-10-17T00:33:11.188Z,16.50
2022-10-17T00:35:38.780Z,16.50
2022-10-17T00:38:06.373Z,16.50
2022-10-17T00:40:33.962Z,16.40
2022-10-17T00:43:01.574Z,16.40
2022-10-17T00:45:31.053Z,16.40
2022-10-17T00:48:06.655Z,16.30
2022-10-17T00:50:35.604Z,16.40
2022-10-17T00:53:05.580Z,16.30
2022-10-17T00:55:37.032Z,16.40
2022-10-17T00:58:06.334Z,16.40
2022-10-17T01:00:34.095Z,16.40
2022-10-17T01:03:01.680Z,16.50
2022-10-17T01:05:29.624Z,16.50
2022-10-17T01:07:57.440Z,16.50
2022-10-17T01:10:31.075Z,16.40
2022-10-17T01:13:13.734Z,16.30
2022-10-17T01:15:59.641Z,16.40
2022-10-17T01:18:46.337Z,16.30
2022-10-17T01:21:21.177Z,16.30
2022-10-17T01:23:54.669Z,16.20
2022-10-17T01:26:41.079Z,16.20
2022-10-17T01:29:27.502Z,16.20
2022-10-17T01:32:28.718Z,16.10
2022-10-17T01:35:21.354Z,16.20
2022-10-17T01:37:56.846Z,16.10
2022-10-17T01:40:24.422Z,16.20
2022-10-17T01:43:06.892Z,16.20
2022-10-17T01:46:14.931Z,16.10
2022-10-17T01:48:46.220Z,16.10
2022-10-17T01:51:21.560Z,16.20
2022-10-17T01:54:12.433Z,16.20
2022-10-17T01:56:42.130Z,16.20
2022-10-17T01:59:19.754Z,16.10
2022-10-17T02:01:50.897Z,16.10
2022-10-17T02:04:19.165Z,16.10
2022-10-17T02:06:46.883Z,16.10
2022-10-17T02:09:18.796Z,16.00
2022-10-17T02:12:24.242Z,16.00
2022-10-17T02:15:09.859Z,16.00
2022-10-17T02:17:37.405Z,16.00
2022-10-17T02:20:20.482Z,16.00
2022-10-17T02:23:07.458Z,16.00
2022-10-17T02:25:59.274Z,15.90
2022-10-17T02:28:42.343Z,15.90
2022-10-17T02:31:21.955Z,15.90
2022-10-17T02:34:01.299Z,15.90
2022-10-17T02:36:38.451Z,15.90
2022-10-17T02:39:07.832Z,16.00
2022-10-17T02:41:36.496Z,16.00
2022-10-17T02:44:06.911Z,16.00
2022-10-17T02:46:37.998Z,16.00
2022-10-17T02:49:22.093Z,16.00
2022-10-17T02:52:08.329Z,16.00
2022-10-17T02:54:38.783Z,16.00
2022-10-17T02:57:52.856Z,16.00
2022-10-17T03:00:22.373Z,16.00
2022-10-17T03:02:51.811Z,16.00
2022-10-17T03:05:25.895Z,16.00
2022-10-17T03:07:54.330Z,16.00
2022-10-17T03:10:22.753Z,16.00
2022-10-17T03:12:50.501Z,16.00
2022-10-17T03:15:18.060Z,16.00
2022-10-17T03:20:18.070Z,15.90
2022-10-17T03:22:45.645Z,15.90
2022-10-17T03:25:13.248Z,15.90
2022-10-17T03:27:40.845Z,15.80
2022-10-17T03:30:09.328Z,15.80
2022-10-17T03:32:36.973Z,15.80
2022-10-17T03:35:04.896Z,15.80
2022-10-17T03:37:32.675Z,15.80
2022-10-17T03:40:00.379Z,15.80
2022-10-17T03:42:27.976Z,15.80
2022-10-17T03:44:55.553Z,15.80
2022-10-17T03:47:23.249Z,15.80
2022-10-17T03:49:53.596Z,15.80
2022-10-17T03:52:21.160Z,15.80
2022-10-17T03:54:50.668Z,15.80
2022-10-17T03:57:19.078Z,15.80
2022-10-17T03:59:46.691Z,15.80
2022-10-17T04:02:14.319Z,15.90
2022-10-17T04:04:41.976Z,15.90
2022-10-17T04:07:09.560Z,15.90
2022-10-17T04:09:37.153Z,15.90
2022-10-17T04:12:04.925Z,15.90
2022-10-17T04:14:32.475Z,15.90
2022-10-17T04:17:00.066Z,15.90
2022-10-17T04:19:27.676Z,15.90
2022-10-17T04:21:55.392Z,15.90
2022-10-17T04:24:23.110Z,15.90
2022-10-17T04:26:51.328Z,15.90
2022-10-17T04:29:19.438Z,15.90
2022-10-17T04:31:47.075Z,15.90
2022-10-17T04:34:14.677Z,15.90
2022-10-17T04:36:42.277Z,15.90
2022-10-17T04:39:09.825Z,15.90
2022-10-17T04:41:37.546Z,15.90
2022-10-17T04:44:05.316Z,15.90
2022-10-17T04:46:34.362Z,15.80
2022-10-17T04:49:02.123Z,15.80
2022-10-17T04:51:29.668Z,15.80
2022-10-17T04:53:57.200Z,15.80
2022-10-17T04:56:25.281Z,15.80
2022-10-17T04:58:53.138Z,15.80
2022-10-17T05:01:22.960Z,15.70
2022-10-17T05:03:51.522Z,15.70
2022-10-17T05:06:25.324Z,15.70
2022-10-17T05:08:52.933Z,15.70
2022-10-17T05:11:22.016Z,15.70
2022-10-17T05:13:54.937Z,15.70
2022-10-17T05:16:23.297Z,15.70
2022-10-17T05:18:53.110Z,15.70
2022-10-17T05:21:22.570Z,15.70
2022-10-17T05:23:50.710Z,15.70
2022-10-17T05:26:18.607Z,15.70
2022-10-17T05:28:46.394Z,15.70
2022-10-17T05:31:14.407Z,15.70
2022-10-17T05:33:42.074Z,15.70
2022-10-17T05:36:10.173Z,15.70
2022-10-17T05:38:37.775Z,15.70
2022-10-17T05:41:06.297Z,15.60
2022-10-17T05:43:34.765Z,15.60
2022-10-17T05:46:06.810Z,15.60
2022-10-17T05:48:35.014Z,15.50
2022-10-17T05:51:07.968Z,15.50
2022-10-17T05:53:38.086Z,15.50
2022-10-17T05:56:08.327Z,15.50
2022-10-17T05:58:49.915Z,15.40
2022-10-17T06:01:19.359Z,15.40
2022-10-17T06:03:46.914Z,15.30
2022-10-17T06:06:15.366Z,15.30
2022-10-17T06:08:43.569Z,15.30
2022-10-17T06:11:12.396Z,15.20
2022-10-17T06:13:40.262Z,15.20
2022-10-17T06:16:08.273Z,15.30
2022-10-17T06:18:35.983Z,15.30
2022-10-17T06:21:05.984Z,15.20
2022-10-17T06:23:34.165Z,15.20
2022-10-17T06:26:03.074Z,15.20
2022-10-17T06:28:31.325Z,15.20
2022-10-17T06:30:58.990Z,15.20
2022-10-17T06:33:26.629Z,15.20
2022-10-17T06:35:55.739Z,15.20
2022-10-17T06:38:23.853Z,15.10
2022-10-17T06:40:51.986Z,15.10
2022-10-17T06:43:20.705Z,15.10
2022-10-17T06:45:49.860Z,15.10
2022-10-17T06:48:17.448Z,15.10
2022-10-17T06:50:45.039Z,15.10
2022-10-17T06:53:12.637Z,15.10
2022-10-17T06:55:40.235Z,15.10
2022-10-17T06:58:07.797Z,15.10
2022-10-17T07:00:35.489Z,15.10
2022-10-17T07:03:03.064Z,15.10
2022-10-17T07:05:30.628Z,15.10
2022-10-17T07:07:58.241Z,15.10
2022-10-17T07:10:27.016Z,15.10
2022-10-17T07:12:54.631Z,15.10
2022-10-17T07:15:22.308Z,15.10
2022-10-17T07:17:50.947Z,15.10
2022-10-17T07:20:18.657Z,15.20
2022-10-17T07:22:46.270Z,15.10
2022-10-17T07:25:14.141Z,15.10
2022-10-17T07:27:41.919Z,15.20
2022-10-17T07:30:10.229Z,15.20
2022-10-17T07:32:38.138Z,15.20
2022-10-17T07:35:05.919Z,15.10
2022-10-17T07:37:33.990Z,15.20
2022-10-17T07:40:01.991Z,15.20
2022-10-17T07:42:29.706Z,15.20
2022-10-17T07:44:57.356Z,15.20
2022-10-17T07:47:25.091Z,15.30
2022-10-17T07:49:52.734Z,15.20
2022-10-17T07:52:20.270Z,15.20
2022-10-17T07:54:47.852Z,15.20
2022-10-17T07:57:15.392Z,15.20
2022-10-17T07:59:42.988Z,15.30
2022-10-17T08:02:22.793Z,15.30
2022-10-17T08:04:51.041Z,15.30
2022-10-17T08:07:23.238Z,15.30
2022-10-17T08:09:53.153Z,15.30
2022-10-17T08:12:20.775Z,15.30
2022-10-17T08:14:48.379Z,15.40
2022-10-17T08:17:16.084Z,15.40
2022-10-17T08:19:43.688Z,15.40
2022-10-17T08:22:11.512Z,15.40
2022-10-17T08:24:39.059Z,15.40
2022-10-17T08:27:11.654Z,15.50
2022-10-17T08:29:40.611Z,15.50
2022-10-17T08:32:10.335Z,15.50
2022-10-17T08:34:38.045Z,15.60
2022-10-17T08:37:05.830Z,15.70
2022-10-17T08:39:33.439Z,15.70
2022-10-17T08:42:25.631Z,15.70
2022-10-17T08:45:20.103Z,15.70
2022-10-17T08:47:59.756Z,15.70
2022-10-17T08:50:46.913Z,15.70
2022-10-17T08:53:25.745Z,15.80
2022-10-17T08:55:54.882Z,15.70
2022-10-17T08:58:28.354Z,15.80
2022-10-17T09:01:20.577Z,15.80
2022-10-17T09:03:59.685Z,15.80
2022-10-17T09:06:35.160Z,15.80
2022-10-17T09:09:22.481Z,15.80
2022-10-17T09:11:56.113Z,15.80
2022-10-17T09:14:51.184Z,15.90
2022-10-17T09:17:28.131Z,15.90
2022-10-17T09:20:04.832Z,15.90
2022-10-17T09:23:05.465Z,15.90
2022-10-17T09:25:43.253Z,15.90
2022-10-17T09:28:20.743Z,15.90
2022-10-17T09:30:58.359Z,16.00
2022-10-17T09:33:49.831Z,15.90
2022-10-17T09:36:29.090Z,16.00
2022-10-17T09:39:01.813Z,16.00
2022-10-17T09:41:45.367Z,16.00
2022-10-17T09:44:20.731Z,16.00
2022-10-17T09:47:29.006Z,15.90
2022-10-17T09:49:57.083Z,16.00
2022-10-17T09:52:34.269Z,16.00
2022-10-17T09:55:23.495Z,16.10
2022-10-17T09:57:59.855Z,16.10
2022-10-17T10:00:33.750Z,16.20
2022-10-17T10:03:22.415Z,16.20
2022-10-17T10:06:05.360Z,16.20
2022-10-17T10:08:34.923Z,16.20
2022-10-17T10:11:06.568Z,16.20
2022-10-17T10:13:35.723Z,16.20
2022-10-17T10:16:20.944Z,16.20
2022-10-17T10:18:50.940Z,16.30
2022-10-17T10:21:24.668Z,16.30
2022-10-17T10:24:10.333Z,16.40
2022-10-17T10:26:41.016Z,16.40
2022-10-17T10:29:20.982Z,16.50
2022-10-17T10:31:49.907Z,16.60
2022-10-17T10:34:29.947Z,16.60
2022-10-17T10:37:16.979Z,16.60
2022-10-17T10:39:57.381Z,16.60
2022-10-17T10:42:41.387Z,16.70
2022-10-17T10:45:43.220Z,16.70
2022-10-17T10:48:22.560Z,16.70
2022-10-17T10:50:55.332Z,16.70
2022-10-17T10:53:26.092Z,16.70
2022-10-17T10:56:28.891Z,16.80
2022-10-17T10:59:08.657Z,16.80
2022-10-17T11:01:45.690Z,16.80
2022-10-17T11:04:26.861Z,16.80
2022-10-17T11:07:02.241Z,16.80
2022-10-17T11:09:45.214Z,16.80
2022-10-17T11:12:27.525Z,16.90
2022-10-17T11:15:09.592Z,16.80
2022-10-17T11:17:48.543Z,16.80
2022-10-17T11:20:26.047Z,16.80
2022-10-17T11:23:21.693Z,16.80
2022-10-17T11:25:51.922Z,16.90
2022-10-17T11:28:23.156Z,17.00
2022-10-17T11:31:07.929Z,17.00
2022-10-17T11:33:56.191Z,17.10
2022-10-17T11:36:31.331Z,17.20
2022-10-17T11:39:16.227Z,17.20
2022-10-17T11:41:55.212Z,17.20
2022-10-17T11:44:39.713Z,17.20
2022-10-17T11:47:29.102Z,17.20
2022-10-17T11:53:09.152Z,17.30
2022-10-17T11:55:38.535Z,17.30
2022-10-17T12:01:17.608Z,17.40
2022-10-17T12:04:13.976Z,17.60
2022-10-17T12:07:01.569Z,17.70
2022-10-17T12:09:31.949Z,17.80
2022-10-17T12:12:02.516Z,18.00
2022-10-17T12:14:47.112Z,18.20
2022-10-17T12:17:39.174Z,18.30
2022-10-17T12:20:23.676Z,18.70
2022-10-17T12:22:51.499Z,18.90
2022-10-17T12:25:48.794Z,18.90
2022-10-17T12:28:18.638Z,18.90
2022-10-17T12:31:19.224Z,18.90
2022-10-17T12:33:46.832Z,18.80
2022-10-17T12:36:17.327Z,18.60
2022-10-17T12:38:52.179Z,18.50
2022-10-17T12:41:38.636Z,18.50
2022-10-17T12:44:15.522Z,18.40
2022-10-17T12:47:03.461Z,18.60
2022-10-17T12:49:45.525Z,19.00
2022-10-17T12:52:35.276Z,19.50
2022-10-17T12:55:11.940Z,20.20
2022-10-17T12:57:52.049Z,20.50
2022-10-17T13:01:05.457Z,20.60
2022-10-17T13:03:45.900Z,20.50
2022-10-17T13:06:21.915Z,20.40
2022-10-17T13:09:01.032Z,20.40
2022-10-17T13:11:33.998Z,21.00
2022-10-17T13:14:04.536Z,21.10
2022-10-17T13:16:33.263Z,20.90
2022-10-17T13:19:02.919Z,20.70
2022-10-17T13:21:30.743Z,20.80
2022-10-17T13:23:58.544Z,20.80
2022-10-17T13:26:28.399Z,20.90
2022-10-17T13:29:12.073Z,21.00
2022-10-17T13:31:44.317Z,21.00
2022-10-17T13:34:25.398Z,20.80
2022-10-17T13:36:56.533Z,20.80
2022-10-17T13:39:44.972Z,21.00
2022-10-17T13:42:40.520Z,21.00
2022-10-17T13:45:29.171Z,20.20
2022-10-17T13:47:58.566Z,19.70
2022-10-17T13:50:45.211Z,19.40
2022-10-17T13:53:13.090Z,19.10
2022-10-17T13:56:27.259Z,18.90
2022-10-17T13:58:57.559Z,18.70
2022-10-17T14:01:27.186Z,18.80
2022-10-17T14:04:07.799Z,18.80
2022-10-17T14:06:46.233Z,18.70
2022-10-17T14:09:19.085Z,18.70
2022-10-17T14:12:12.712Z,18.70
2022-10-17T14:15:08.724Z,18.80
2022-10-17T14:17:30.722Z,18.90
2022-10-17T14:20:40.393Z,18.80
2022-10-17T14:23:17.405Z,18.80
2022-10-17T14:25:41.375Z,18.70
2022-10-17T14:28:18.528Z,18.70
2022-10-17T14:30:57.283Z,18.60
2022-10-17T14:33:29.425Z,18.50
2022-10-17T14:36:00.178Z,18.60
2022-10-17T14:38:28.798Z,18.50
2022-10-17T14:42:04.089Z,18.60
2022-10-17T14:43:59.579Z,18.60
2022-10-17T14:46:27.967Z,18.60
2022-10-17T14:49:14.212Z,18.60
2022-10-17T14:52:07.550Z,18.60
2022-10-17T14:54:37.572Z,18.70
2022-10-17T14:57:23.164Z,18.60
2022-10-17T14:59:55.395Z,18.70
2022-10-17T15:02:28.367Z,18.60
2022-10-17T15:04:56.410Z,18.50
2022-10-17T15:07:24.434Z,18.50
2022-10-17T15:09:53.928Z,18.50
2022-10-17T15:12:25.990Z,18.50
2022-10-17T15:14:54.238Z,18.50
2022-10-17T15:17:29.948Z,18.40
2022-10-17T15:19:58.284Z,18.40
2022-10-17T15:22:25.977Z,18.40
2022-10-17T15:24:53.649Z,18.50
2022-10-17T15:27:26.373Z,18.40
2022-10-17T15:29:54.081Z,18.40
2022-10-17T15:32:21.829Z,18.40
2022-10-17T15:34:49.405Z,18.40
2022-10-17T15:37:23.088Z,18.40
2022-10-17T15:39:55.217Z,18.40
2022-10-17T15:42:27.631Z,18.50
2022-10-17T15:44:55.889Z,18.50
2022-10-17T15:47:25.487Z,18.40
2022-10-17T15:49:54.154Z,18.20
2022-10-17T15:52:22.555Z,18.20
2022-10-17T15:54:50.337Z,18.20
2022-10-17T15:57:19.879Z,18.10
2022-10-17T15:59:49.272Z,18.00
2022-10-17T16:02:18.541Z,18.00
2022-10-17T16:04:47.625Z,17.90
2022-10-17T16:07:16.072Z,17.80
2022-10-17T16:09:43.659Z,17.80
2022-10-17T16:12:16.544Z,17.80
2022-10-17T16:14:44.280Z,17.80
2022-10-17T16:17:14.814Z,17.80
2022-10-17T16:19:42.728Z,17.80
2022-10-17T16:22:26.639Z,17.70
2022-10-17T16:24:58.841Z,17.70
2022-10-17T16:27:26.621Z,17.70
2022-10-17T16:29:54.200Z,17.60
2022-10-17T16:32:21.850Z,17.60
2022-10-17T16:34:49.485Z,17.60
2022-10-17T16:37:17.105Z,17.50
2022-10-17T16:39:49.160Z,17.50
2022-10-17T16:42:16.942Z,17.50
2022-10-17T16:44:44.953Z,17.40
2022-10-17T16:47:12.748Z,17.30
2022-10-17T16:49:42.982Z,17.20
2022-10-17T16:52:13.046Z,17.10
2022-10-17T16:54:40.712Z,17.10
2022-10-17T16:57:08.470Z,17.00
2022-10-17T16:59:36.076Z,17.00
2022-10-17T17:02:03.781Z,17.00
2022-10-17T17:04:31.559Z,17.00
2022-10-17T17:06:59.236Z,17.00
2022-10-17T17:09:26.879Z,17.00
2022-10-17T17:11:54.566Z,17.00
2022-10-17T17:14:22.318Z,17.00
2022-10-17T17:16:49.958Z,16.90
2022-10-17T17:19:17.575Z,16.80
2022-10-17T17:21:50.194Z,16.90
2022-10-17T17:24:21.085Z,16.80
2022-10-17T17:26:52.565Z,16.80
2022-10-17T17:29:22.382Z,16.70
2022-10-17T17:31:50.753Z,16.70
2022-10-17T17:34:18.629Z,16.70
2022-10-17T17:36:46.307Z,16.60
2022-10-17T17:39:15.372Z,16.60
2022-10-17T17:41:44.322Z,16.50
2022-10-17T17:44:16.805Z,16.50
2022-10-17T17:46:45.571Z,16.40
2022-10-17T17:49:13.607Z,16.40
2022-10-17T17:51:41.955Z,16.30
2022-10-17T17:54:12.740Z,16.30
2022-10-17T17:56:40.527Z,16.20
2022-10-17T17:59:08.308Z,16.20
2022-10-17T18:01:38.399Z,16.20
2022-10-17T18:04:08.863Z,16.20
2022-10-17T18:06:37.863Z,16.20
2022-10-17T18:09:06.868Z,16.10
2022-10-17T18:11:35.387Z,16.10
2022-10-17T18:14:05.586Z,16.10
2022-10-17T18:16:34.860Z,16.00
2022-10-17T18:19:09.017Z,16.00
2022-10-17T18:21:37.547Z,16.00
2022-10-17T18:24:05.744Z,15.90
2022-10-17T18:26:33.837Z,15.90
2022-10-17T18:29:01.521Z,15.90
2022-10-17T18:31:32.220Z,15.80
2022-10-17T18:34:00.401Z,15.80
2022-10-17T18:36:29.520Z,15.70
2022-10-17T18:38:57.268Z,15.70
2022-10-17T18:41:26.344Z,15.70
2022-10-17T18:43:55.415Z,15.70
2022-10-17T18:46:25.836Z,15.60
2022-10-17T18:48:53.513Z,15.60
2022-10-17T18:51:23.327Z,15.60
2022-10-17T18:53:54.512Z,15.50
2022-10-17T18:56:23.230Z,15.50
2022-10-17T18:58:51.288Z,15.50
2022-10-17T19:01:22.547Z,15.50
2022-10-17T19:03:53.025Z,15.50
2022-10-17T19:06:23.773Z,15.40
2022-10-17T19:08:51.603Z,15.40
2022-10-17T19:11:22.489Z,15.40
2022-10-17T19:13:50.928Z,15.40
2022-10-17T19:16:25.030Z,15.30
2022-10-17T19:19:01.482Z,15.30
2022-10-17T19:21:29.410Z,15.30
2022-10-17T19:24:03.081Z,15.20
2022-10-17T19:26:32.962Z,15.20
2022-10-17T19:29:01.003Z,15.10
2022-10-17T19:31:31.550Z,15.20
2022-10-17T19:33:59.709Z,15.10
2022-10-17T19:36:33.227Z,15.10
2022-10-17T19:39:04.343Z,15.00
2022-10-17T19:41:32.251Z,15.00
2022-10-17T19:44:00.703Z,15.00
2022-10-17T19:46:29.822Z,14.90
2022-10-17T19:48:57.577Z,14.80
2022-10-17T19:51:26.397Z,14.80
2022-10-17T19:53:56.026Z,14.80
2022-10-17T19:56:25.336Z,14.80
2022-10-17T19:58:54.328Z,14.70
2022-10-17T20:01:24.895Z,14.70
2022-10-17T20:03:53.050Z,14.60
2022-10-17T20:06:21.518Z,14.60
2022-10-17T20:08:49.792Z,14.70
2022-10-17T20:11:35.382Z,14.70
2022-10-17T20:14:03.127Z,14.70
2022-10-17T20:16:32.816Z,14.60
2022-10-17T20:19:08.387Z,14.60
2022-10-17T20:21:39.569Z,14.60
2022-10-17T20:24:09.411Z,14.50
2022-10-17T20:26:38.783Z,14.50
2022-10-17T20:29:14.675Z,14.50
2022-10-17T20:31:43.939Z,14.50
2022-10-17T20:34:17.052Z,14.50
2022-10-17T20:36:44.906Z,14.40
2022-10-17T20:39:14.096Z,14.40
2022-10-17T20:41:42.678Z,14.40
2022-10-17T20:44:11.044Z,14.40
2022-10-17T20:46:44.685Z,14.30
2022-10-17T20:49:21.080Z,14.30
2022-10-17T20:51:49.021Z,14.30
2022-10-17T20:54:16.642Z,14.20
2022-10-17T20:56:44.274Z,14.20
2022-10-17T20:59:16.883Z,14.20
2022-10-17T21:01:45.464Z,14.10
2022-10-17T21:04:44.158Z,14.10
2022-10-17T21:07:01.296Z,14.00
2022-10-17T21:09:28.998Z,14.00
2022-10-17T21:11:57.120Z,14.00
2022-10-17T21:14:25.396Z,14.00
2022-10-17T21:16:53.457Z,13.90
2022-10-17T21:19:21.928Z,13.90
2022-10-17T21:21:49.654Z,13.80
2022-10-17T21:24:20.738Z,13.80
2022-10-17T21:26:53.610Z,13.70
2022-10-17T21:29:22.488Z,13.60
2022-10-17T21:31:50.455Z,13.60
2022-10-17T21:34:21.280Z,13.60
2022-10-17T21:36:48.937Z,13.50
2022-10-17T21:39:17.319Z,13.40
2022-10-17T21:41:46.072Z,13.40
2022-10-17T21:44:16.663Z,13.40
2022-10-17T21:46:44.947Z,13.40
2022-10-17T21:49:14.184Z,13.30
2022-10-17T21:51:42.092Z,13.30
2022-10-17T21:54:09.741Z,13.30
2022-10-17T21:56:37.598Z,13.30
2022-10-17T21:59:05.926Z,13.20
2022-10-17T22:01:39.172Z,13.20
2022-10-17T22:04:10.510Z,13.30
2022-10-17T22:06:41.015Z,13.20
2022-10-17T22:09:15.427Z,13.20
2022-10-17T22:11:46.811Z,13.20
2022-10-17T22:14:17.476Z,13.10
2022-10-17T22:16:46.526Z,13.10
2022-10-17T22:19:19.235Z,13.00
2022-10-17T22:21:46.876Z,13.00
2022-10-17T22:24:16.244Z,13.00
2022-10-17T22:26:44.674Z,13.00
2022-10-17T22:29:13.077Z,13.00
2022-10-17T22:31:41.193Z,12.90
2022-10-17T22:34:10.732Z,12.90
2022-10-17T22:36:38.408Z,12.90
2022-10-17T22:39:06.193Z,12.90
2022-10-17T22:41:34.197Z,12.80
2022-10-17T22:44:02.183Z,12.80
2022-10-17T22:46:30.104Z,12.80
2022-10-17T22:48:57.946Z,12.80
2022-10-17T22:51:25.643Z,12.80
2022-10-17T22:53:53.341Z,12.80
2022-10-17T22:56:21.903Z,12.70
2022-10-17T22:58:50.330Z,12.60
2022-10-17T23:01:20.737Z,12.60
2022-10-17T23:03:49.060Z,12.60
2022-10-17T23:06:16.684Z,12.70
2022-10-17T23:08:44.919Z,12.60
2022-10-17T23:11:13.039Z,12.60
2022-10-17T23:13:41.075Z,12.60
2022-10-17T23:16:09.268Z,12.50
2022-10-17T23:18:38.128Z,12.50
2022-10-17T23:21:06.807Z,12.40
2022-10-17T23:23:34.545Z,12.40
2022-10-17T23:26:11.074Z,12.40
2022-10-17T23:28:39.499Z,12.30
2022-10-17T23:31:12.746Z,12.30
2022-10-17T23:33:41.518Z,12.30
2022-10-17T23:36:11.814Z,12.30
2022-10-17T23:38:40.652Z,12.30
2022-10-17T23:41:08.753Z,12.20
2022-10-17T23:43:37.120Z,12.20
2022-10-17T23:46:06.534Z,12.20
2022-10-17T23:48:34.429Z,12.10
2022-10-17T23:51:02.069Z,12.20
2022-10-17T23:53:29.712Z,12.10
2022-10-17T23:55:57.445Z,12.20
2022-10-17T23:58:25.041Z,12.10
